sensor_id;sensor_type;location;lat;lon;timestamp;P1;durP1;ratioP1;P2;durP2;ratioP2
68379;SDS011;57711;53.196;19.638;2023-12-04T07:27:04;44.00;;;26.30;;
68379;SDS011;57711;53.196;19.638;2023-12-04T07:29:32;29.70;;;21.20;;
68379;SDS011;57711;53.196;19.638;2023-12-04T07:31:59;34.30;;;18.00;;
68379;SDS011;57711;53.196;19.638;2023-12-04T07:34:26;30.10;;;19.60;;
68379;SDS011;57711;53.196;19.638;2023-12-04T07:36:54;23.60;;;16.70;;
68379;SDS011;57711;53.196;19.638;2023-12-04T07:39:21;28.80;;;18.80;;
68379;SDS011;57711;53.196;19.638;2023-12-04T07:41:48;24.50;;;16.20;;
68379;SDS011;57711;53.196;19.638;2023-12-04T07:44:15;26.70;;;15.80;;
68379;SDS011;57711;53.196;19.638;2023-12-04T07:46:43;32.40;;;19.50;;
68379;SDS011;57711;53.196;19.638;2023-12-04T07:49:10;27.60;;;17.30;;
68379;SDS011;57711;53.196;19.638;2023-12-04T07:51:37;27.20;;;17.30;;
68379;SDS011;57711;53.196;19.638;2023-12-04T07:54:04;34.00;;;20.40;;
68379;SDS011;57711;53.196;19.638;2023-12-04T07:56:32;25.50;;;17.10;;
68379;SDS011;57711;53.196;19.638;2023-12-04T07:58:59;24.70;;;16.60;;
68379;SDS011;57711;53.196;19.638;2023-12-04T08:01:26;25.70;;;16.10;;
68379;SDS011;57711;53.196;19.638;2023-12-04T08:03:53;45.60;;;22.80;;
68379;SDS011;57711;53.196;19.638;2023-12-04T08:06:21;49.00;;;23.60;;
68379;SDS011;57711;53.196;19.638;2023-12-04T08:08:48;42.90;;;22.10;;
68379;SDS011;57711;53.196;19.638;2023-12-04T08:11:15;43.90;;;21.20;;
68379;SDS011;57711;53.196;19.638;2023-12-04T08:13:42;43.10;;;20.70;;
68379;SDS011;57711;53.196;19.638;2023-12-04T08:16:12;29.00;;;17.50;;
68379;SDS011;57711;53.196;19.638;2023-12-04T08:18:42;28.30;;;17.50;;
68379;SDS011;57711;53.196;19.638;2023-12-04T08:21:10;31.70;;;18.70;;
68379;SDS011;57711;53.196;19.638;2023-12-04T08:23:38;33.10;;;19.80;;
68379;SDS011;57711;53.196;19.638;2023-12-04T08:26:06;31.80;;;19.00;;
68379;SDS011;57711;53.196;19.638;2023-12-04T08:28:33;35.60;;;20.40;;
68379;SDS011;57711;53.196;19.638;2023-12-04T08:31:03;40.50;;;21.20;;
68379;SDS011;57711;53.196;19.638;2023-12-04T08:33:30;33.30;;;19.50;;
68379;SDS011;57711;53.196;19.638;2023-12-04T08:35:57;36.30;;;20.70;;
68379;SDS011;57711;53.196;19.638;2023-12-04T08:38:25;40.30;;;24.10;;
68379;SDS011;57711;53.196;19.638;2023-12-04T08:40:53;34.40;;;21.90;;
68379;SDS011;57711;53.196;19.638;2023-12-04T08:43:20;39.20;;;22.70;;
68379;SDS011;57711;53.196;19.638;2023-12-04T08:45:47;50.50;;;30.80;;
68379;SDS011;57711;53.196;19.638;2023-12-04T08:48:14;38.60;;;21.60;;
68379;SDS011;57711;53.196;19.638;2023-12-04T08:50:41;39.30;;;23.80;;
68379;SDS011;57711;53.196;19.638;2023-12-04T08:53:08;46.80;;;26.80;;
68379;SDS011;57711;53.196;19.638;2023-12-04T08:55:36;50.30;;;29.30;;
68379;SDS011;57711;53.196;19.638;2023-12-04T08:58:03;62.60;;;29.30;;
68379;SDS011;57711;53.196;19.638;2023-12-04T09:00:32;187.90;;;49.90;;
68379;SDS011;57711;53.196;19.638;2023-12-04T09:03:00;186.60;;;51.10;;
68379;SDS011;57711;53.196;19.638;2023-12-04T09:05:36;117.60;;;41.70;;
68379;SDS011;57711;53.196;19.638;2023-12-04T09:08:05;75.70;;;32.50;;
68379;SDS011;57711;53.196;19.638;2023-12-04T09:10:36;51.60;;;24.30;;
68379;SDS011;57711;53.196;19.638;2023-12-04T09:13:23;48.90;;;24.60;;
68379;SDS011;57711;53.196;19.638;2023-12-04T09:15:51;71.40;;;40.20;;
68379;SDS011;57711;53.196;19.638;2023-12-04T09:18:18;63.80;;;34.20;;
68379;SDS011;57711;53.196;19.638;2023-12-04T09:20:46;67.20;;;34.60;;
68379;SDS011;57711;53.196;19.638;2023-12-04T09:23:13;90.00;;;37.70;;
68379;SDS011;57711;53.196;19.638;2023-12-04T09:25:40;62.60;;;32.10;;
68379;SDS011;57711;53.196;19.638;2023-12-04T09:28:07;71.60;;;36.60;;
68379;SDS011;57711;53.196;19.638;2023-12-04T09:30:35;57.90;;;33.50;;
68379;SDS011;57711;53.196;19.638;2023-12-04T09:33:04;57.00;;;31.40;;
68379;SDS011;57711;53.196;19.638;2023-12-04T09:35:33;59.00;;;32.80;;
68379;SDS011;57711;53.196;19.638;2023-12-04T09:38:00;85.30;;;40.80;;
68379;SDS011;57711;53.196;19.638;2023-12-04T09:40:28;64.60;;;36.30;;
68379;SDS011;57711;53.196;19.638;2023-12-04T09:42:55;69.80;;;40.20;;
68379;SDS011;57711;53.196;19.638;2023-12-04T09:45:22;68.70;;;38.30;;
68379;SDS011;57711;53.196;19.638;2023-12-04T09:47:51;77.30;;;41.20;;
68379;SDS011;57711;53.196;19.638;2023-12-04T09:50:20;82.30;;;44.50;;
68379;SDS011;57711;53.196;19.638;2023-12-04T09:52:50;74.10;;;39.10;;
68379;SDS011;57711;53.196;19.638;2023-12-04T09:55:17;71.50;;;40.40;;
68379;SDS011;57711;53.196;19.638;2023-12-04T09:57:44;82.60;;;41.60;;
68379;SDS011;57711;53.196;19.638;2023-12-04T10:00:13;77.60;;;39.40;;
68379;SDS011;57711;53.196;19.638;2023-12-04T10:02:41;96.00;;;44.70;;
68379;SDS011;57711;53.196;19.638;2023-12-04T10:05:10;128.80;;;54.70;;
68379;SDS011;57711;53.196;19.638;2023-12-04T10:07:37;96.50;;;45.80;;
68379;SDS011;57711;53.196;19.638;2023-12-04T10:10:07;133.80;;;60.80;;
68379;SDS011;57711;53.196;19.638;2023-12-04T10:12:35;124.20;;;53.70;;
68379;SDS011;57711;53.196;19.638;2023-12-04T10:15:07;123.80;;;63.10;;
68379;SDS011;57711;53.196;19.638;2023-12-04T10:17:39;131.80;;;64.60;;
68379;SDS011;57711;53.196;19.638;2023-12-04T10:20:09;136.30;;;57.70;;
68379;SDS011;57711;53.196;19.638;2023-12-04T10:22:39;88.20;;;44.50;;
68379;SDS011;57711;53.196;19.638;2023-12-04T10:25:18;90.70;;;44.30;;
68379;SDS011;57711;53.196;19.638;2023-12-04T10:27:46;94.50;;;43.20;;
68379;SDS011;57711;53.196;19.638;2023-12-04T10:30:27;83.60;;;44.20;;
68379;SDS011;57711;53.196;19.638;2023-12-04T10:32:57;84.10;;;45.60;;
68379;SDS011;57711;53.196;19.638;2023-12-04T10:35:29;94.50;;;49.50;;
68379;SDS011;57711;53.196;19.638;2023-12-04T10:38:00;65.10;;;39.20;;
68379;SDS011;57711;53.196;19.638;2023-12-04T10:40:28;66.20;;;36.00;;
68379;SDS011;57711;53.196;19.638;2023-12-04T10:45:45;68.90;;;39.20;;
68379;SDS011;57711;53.196;19.638;2023-12-04T10:48:14;66.20;;;39.00;;
68379;SDS011;57711;53.196;19.638;2023-12-04T10:50:44;66.80;;;38.60;;
68379;SDS011;57711;53.196;19.638;2023-12-04T10:53:12;72.90;;;40.10;;
68379;SDS011;57711;53.196;19.638;2023-12-04T10:55:41;65.30;;;36.40;;
68379;SDS011;57711;53.196;19.638;2023-12-04T10:58:10;77.80;;;39.80;;
68379;SDS011;57711;53.196;19.638;2023-12-04T11:00:39;90.70;;;43.80;;
68379;SDS011;57711;53.196;19.638;2023-12-04T11:03:10;71.50;;;34.80;;
68379;SDS011;57711;53.196;19.638;2023-12-04T11:05:40;73.50;;;39.30;;
68379;SDS011;57711;53.196;19.638;2023-12-04T11:08:11;126.60;;;48.80;;
68379;SDS011;57711;53.196;19.638;2023-12-04T11:10:45;151.50;;;57.60;;
68379;SDS011;57711;53.196;19.638;2023-12-04T11:13:25;119.80;;;48.90;;
68379;SDS011;57711;53.196;19.638;2023-12-04T11:15:56;153.30;;;59.20;;
68379;SDS011;57711;53.196;19.638;2023-12-04T11:18:30;100.20;;;47.20;;
68379;SDS011;57711;53.196;19.638;2023-12-04T11:21:04;103.80;;;45.80;;
68379;SDS011;57711;53.196;19.638;2023-12-04T11:23:37;114.60;;;46.60;;
68379;SDS011;57711;53.196;19.638;2023-12-04T11:26:07;136.20;;;51.40;;
68379;SDS011;57711;53.196;19.638;2023-12-04T11:28:36;167.60;;;85.20;;
68379;SDS011;57711;53.196;19.638;2023-12-04T11:31:05;95.50;;;44.80;;
68379;SDS011;57711;53.196;19.638;2023-12-04T11:33:36;149.00;;;56.90;;
68379;SDS011;57711;53.196;19.638;2023-12-04T11:36:06;107.30;;;46.30;;
68379;SDS011;57711;53.196;19.638;2023-12-04T11:38:41;82.10;;;39.80;;
68379;SDS011;57711;53.196;19.638;2023-12-04T11:41:19;74.30;;;38.50;;
68379;SDS011;57711;53.196;19.638;2023-12-04T11:43:55;73.00;;;39.30;;
68379;SDS011;57711;53.196;19.638;2023-12-04T11:46:24;115.40;;;63.30;;
68379;SDS011;57711;53.196;19.638;2023-12-04T11:48:57;80.20;;;45.10;;
68379;SDS011;57711;53.196;19.638;2023-12-04T11:51:52;111.40;;;52.20;;
68379;SDS011;57711;53.196;19.638;2023-12-04T11:54:21;110.80;;;53.90;;
68379;SDS011;57711;53.196;19.638;2023-12-04T11:56:56;95.50;;;43.20;;
68379;SDS011;57711;53.196;19.638;2023-12-04T11:59:46;101.00;;;47.90;;
68379;SDS011;57711;53.196;19.638;2023-12-04T12:02:13;134.10;;;54.80;;
68379;SDS011;57711;53.196;19.638;2023-12-04T12:04:40;196.60;;;83.30;;
68379;SDS011;57711;53.196;19.638;2023-12-04T12:07:08;122.60;;;65.60;;
68379;SDS011;57711;53.196;19.638;2023-12-04T12:09:36;90.60;;;42.20;;
68379;SDS011;57711;53.196;19.638;2023-12-04T12:12:04;121.40;;;47.60;;
68379;SDS011;57711;53.196;19.638;2023-12-04T12:14:32;115.40;;;55.50;;
68379;SDS011;57711;53.196;19.638;2023-12-04T12:17:00;258.50;;;101.30;;
68379;SDS011;57711;53.196;19.638;2023-12-04T12:19:30;330.50;;;158.70;;
68379;SDS011;57711;53.196;19.638;2023-12-04T12:21:58;213.10;;;82.50;;
68379;SDS011;57711;53.196;19.638;2023-12-04T12:24:25;136.90;;;65.50;;
68379;SDS011;57711;53.196;19.638;2023-12-04T12:26:53;127.00;;;59.10;;
68379;SDS011;57711;53.196;19.638;2023-12-04T12:29:23;123.90;;;56.50;;
68379;SDS011;57711;53.196;19.638;2023-12-04T12:31:50;115.60;;;46.70;;
68379;SDS011;57711;53.196;19.638;2023-12-04T12:34:18;113.60;;;48.80;;
68379;SDS011;57711;53.196;19.638;2023-12-04T12:36:45;119.80;;;49.80;;
68379;SDS011;57711;53.196;19.638;2023-12-04T12:39:13;113.10;;;47.80;;
68379;SDS011;57711;53.196;19.638;2023-12-04T12:41:48;143.10;;;54.30;;
68379;SDS011;57711;53.196;19.638;2023-12-04T12:44:16;129.40;;;56.40;;
68379;SDS011;57711;53.196;19.638;2023-12-04T12:46:47;263.50;;;118.80;;
68379;SDS011;57711;53.196;19.638;2023-12-04T12:49:18;174.00;;;69.80;;
68379;SDS011;57711;53.196;19.638;2023-12-04T12:52:02;102.60;;;48.10;;
68379;SDS011;57711;53.196;19.638;2023-12-04T12:54:39;121.60;;;50.00;;
68379;SDS011;57711;53.196;19.638;2023-12-04T12:57:08;266.20;;;82.30;;
68379;SDS011;57711;53.196;19.638;2023-12-04T12:59:36;260.40;;;75.00;;
68379;SDS011;57711;53.196;19.638;2023-12-04T13:02:05;120.70;;;47.20;;
68379;SDS011;57711;53.196;19.638;2023-12-04T13:04:34;127.60;;;49.60;;
68379;SDS011;57711;53.196;19.638;2023-12-04T13:07:05;256.00;;;88.90;;
68379;SDS011;57711;53.196;19.638;2023-12-04T13:09:33;180.20;;;74.90;;
68379;SDS011;57711;53.196;19.638;2023-12-04T13:12:06;148.60;;;64.60;;
68379;SDS011;57711;53.196;19.638;2023-12-04T13:14:35;243.80;;;105.10;;
68379;SDS011;57711;53.196;19.638;2023-12-04T13:17:04;299.60;;;137.30;;
68379;SDS011;57711;53.196;19.638;2023-12-04T13:19:31;144.10;;;71.20;;
68379;SDS011;57711;53.196;19.638;2023-12-04T13:22:01;107.80;;;51.20;;
68379;SDS011;57711;53.196;19.638;2023-12-04T13:24:31;124.30;;;55.30;;
68379;SDS011;57711;53.196;19.638;2023-12-04T13:26:58;102.10;;;49.20;;
68379;SDS011;57711;53.196;19.638;2023-12-04T13:29:26;102.40;;;47.40;;
68379;SDS011;57711;53.196;19.638;2023-12-04T13:31:53;124.90;;;52.40;;
68379;SDS011;57711;53.196;19.638;2023-12-04T13:34:20;141.10;;;56.10;;
68379;SDS011;57711;53.196;19.638;2023-12-04T13:36:49;117.00;;;47.20;;
68379;SDS011;57711;53.196;19.638;2023-12-04T13:39:16;107.90;;;48.10;;
68379;SDS011;57711;53.196;19.638;2023-12-04T13:41:45;97.80;;;45.30;;
68379;SDS011;57711;53.196;19.638;2023-12-04T13:44:31;112.30;;;48.20;;
68379;SDS011;57711;53.196;19.638;2023-12-04T13:47:00;162.00;;;66.20;;
68379;SDS011;57711;53.196;19.638;2023-12-04T13:49:27;235.70;;;85.00;;
68379;SDS011;57711;53.196;19.638;2023-12-04T13:51:54;234.00;;;83.80;;
68379;SDS011;57711;53.196;19.638;2023-12-04T13:54:22;237.80;;;85.90;;
68379;SDS011;57711;53.196;19.638;2023-12-04T13:57:01;236.60;;;81.10;;
68379;SDS011;57711;53.196;19.638;2023-12-04T13:59:30;253.40;;;86.10;;
68379;SDS011;57711;53.196;19.638;2023-12-04T14:02:00;272.40;;;92.40;;
68379;SDS011;57711;53.196;19.638;2023-12-04T14:04:32;376.00;;;131.10;;
68379;SDS011;57711;53.196;19.638;2023-12-04T14:07:00;285.80;;;102.70;;
68379;SDS011;57711;53.196;19.638;2023-12-04T14:09:31;183.30;;;74.80;;
68379;SDS011;57711;53.196;19.638;2023-12-04T14:11:59;189.60;;;76.90;;
68379;SDS011;57711;53.196;19.638;2023-12-04T14:14:26;189.50;;;78.40;;
68379;SDS011;57711;53.196;19.638;2023-12-04T14:16:53;163.20;;;66.90;;
68379;SDS011;57711;53.196;19.638;2023-12-04T14:19:21;166.70;;;67.80;;
68379;SDS011;57711;53.196;19.638;2023-12-04T14:21:48;211.20;;;87.80;;
68379;SDS011;57711;53.196;19.638;2023-12-04T14:24:15;558.30;;;178.00;;
68379;SDS011;57711;53.196;19.638;2023-12-04T14:26:44;367.50;;;135.70;;
68379;SDS011;57711;53.196;19.638;2023-12-04T14:29:14;311.90;;;136.80;;
68379;SDS011;57711;53.196;19.638;2023-12-04T14:31:42;350.40;;;152.90;;
68379;SDS011;57711;53.196;19.638;2023-12-04T14:34:10;305.60;;;141.10;;
68379;SDS011;57711;53.196;19.638;2023-12-04T14:36:37;192.50;;;91.00;;
68379;SDS011;57711;53.196;19.638;2023-12-04T14:39:05;150.50;;;73.30;;
68379;SDS011;57711;53.196;19.638;2023-12-04T14:41:33;153.10;;;80.50;;
68379;SDS011;57711;53.196;19.638;2023-12-04T14:44:00;137.30;;;64.40;;
68379;SDS011;57711;53.196;19.638;2023-12-04T14:46:28;142.30;;;62.40;;
68379;SDS011;57711;53.196;19.638;2023-12-04T14:48:55;182.00;;;79.00;;
68379;SDS011;57711;53.196;19.638;2023-12-04T14:51:22;115.60;;;59.50;;
68379;SDS011;57711;53.196;19.638;2023-12-04T14:53:51;128.90;;;69.70;;
68379;SDS011;57711;53.196;19.638;2023-12-04T14:56:37;207.60;;;92.10;;
68379;SDS011;57711;53.196;19.638;2023-12-04T14:59:31;201.40;;;95.70;;
68379;SDS011;57711;53.196;19.638;2023-12-04T15:02:04;198.70;;;93.70;;
68379;SDS011;57711;53.196;19.638;2023-12-04T15:04:40;118.80;;;62.50;;
68379;SDS011;57711;53.196;19.638;2023-12-04T15:07:27;140.20;;;84.60;;
68379;SDS011;57711;53.196;19.638;2023-12-04T15:10:22;127.20;;;62.50;;
68379;SDS011;57711;53.196;19.638;2023-12-04T15:13:05;133.30;;;62.10;;
68379;SDS011;57711;53.196;19.638;2023-12-04T15:15:32;197.20;;;91.80;;
68379;SDS011;57711;53.196;19.638;2023-12-04T15:18:22;232.70;;;101.50;;
68379;SDS011;57711;53.196;19.638;2023-12-04T15:21:10;352.90;;;133.10;;
68379;SDS011;57711;53.196;19.638;2023-12-04T15:23:38;350.90;;;140.60;;
68379;SDS011;57711;53.196;19.638;2023-12-04T15:26:05;232.70;;;111.00;;
68379;SDS011;57711;53.196;19.638;2023-12-04T15:28:33;173.10;;;80.30;;
68379;SDS011;57711;53.196;19.638;2023-12-04T15:31:01;164.40;;;75.90;;
68379;SDS011;57711;53.196;19.638;2023-12-04T15:33:29;97.10;;;51.10;;
68379;SDS011;57711;53.196;19.638;2023-12-04T15:35:57;104.30;;;53.40;;
68379;SDS011;57711;53.196;19.638;2023-12-04T15:38:24;105.10;;;53.00;;
68379;SDS011;57711;53.196;19.638;2023-12-04T15:40:52;118.80;;;55.60;;
68379;SDS011;57711;53.196;19.638;2023-12-04T15:43:19;103.20;;;54.40;;
68379;SDS011;57711;53.196;19.638;2023-12-04T15:45:46;122.80;;;62.30;;
68379;SDS011;57711;53.196;19.638;2023-12-04T15:48:14;214.30;;;155.00;;
68379;SDS011;57711;53.196;19.638;2023-12-04T15:50:41;155.30;;;84.30;;
68379;SDS011;57711;53.196;19.638;2023-12-04T15:53:09;144.90;;;66.10;;
68379;SDS011;57711;53.196;19.638;2023-12-04T15:55:36;105.30;;;53.30;;
68379;SDS011;57711;53.196;19.638;2023-12-04T15:58:04;112.40;;;56.60;;
68379;SDS011;57711;53.196;19.638;2023-12-04T16:00:31;113.10;;;51.50;;
68379;SDS011;57711;53.196;19.638;2023-12-04T16:02:58;87.30;;;42.70;;
68379;SDS011;57711;53.196;19.638;2023-12-04T16:05:25;101.70;;;53.40;;
68379;SDS011;57711;53.196;19.638;2023-12-04T16:07:54;151.50;;;70.20;;
68379;SDS011;57711;53.196;19.638;2023-12-04T16:10:21;106.30;;;55.30;;
68379;SDS011;57711;53.196;19.638;2023-12-04T16:12:48;122.70;;;58.40;;
68379;SDS011;57711;53.196;19.638;2023-12-04T16:15:16;107.00;;;50.40;;
68379;SDS011;57711;53.196;19.638;2023-12-04T16:17:44;145.90;;;60.20;;
68379;SDS011;57711;53.196;19.638;2023-12-04T16:20:11;170.50;;;71.30;;
68379;SDS011;57711;53.196;19.638;2023-12-04T16:22:40;206.90;;;92.40;;
68379;SDS011;57711;53.196;19.638;2023-12-04T16:25:10;166.20;;;75.10;;
68379;SDS011;57711;53.196;19.638;2023-12-04T16:27:38;358.90;;;145.00;;
68379;SDS011;57711;53.196;19.638;2023-12-04T16:30:06;311.40;;;119.10;;
68379;SDS011;57711;53.196;19.638;2023-12-04T16:32:34;202.90;;;81.50;;
68379;SDS011;57711;53.196;19.638;2023-12-04T16:35:01;238.40;;;103.60;;
68379;SDS011;57711;53.196;19.638;2023-12-04T16:37:28;274.00;;;118.30;;
68379;SDS011;57711;53.196;19.638;2023-12-04T16:39:56;104.00;;;52.50;;
68379;SDS011;57711;53.196;19.638;2023-12-04T16:42:23;198.80;;;95.10;;
68379;SDS011;57711;53.196;19.638;2023-12-04T16:44:50;358.60;;;193.40;;
68379;SDS011;57711;53.196;19.638;2023-12-04T16:47:17;154.30;;;77.30;;
68379;SDS011;57711;53.196;19.638;2023-12-04T16:49:44;90.10;;;48.20;;
68379;SDS011;57711;53.196;19.638;2023-12-04T16:52:13;75.70;;;41.10;;
68379;SDS011;57711;53.196;19.638;2023-12-04T16:54:42;76.90;;;41.10;;
68379;SDS011;57711;53.196;19.638;2023-12-04T16:57:09;83.30;;;43.50;;
68379;SDS011;57711;53.196;19.638;2023-12-04T16:59:37;82.30;;;44.30;;
68379;SDS011;57711;53.196;19.638;2023-12-04T17:02:04;162.20;;;67.00;;
68379;SDS011;57711;53.196;19.638;2023-12-04T17:04:32;160.00;;;64.70;;
68379;SDS011;57711;53.196;19.638;2023-12-04T17:07:00;161.40;;;62.50;;
68379;SDS011;57711;53.196;19.638;2023-12-04T17:09:28;147.50;;;57.90;;
68379;SDS011;57711;53.196;19.638;2023-12-04T17:11:55;170.80;;;69.30;;
68379;SDS011;57711;53.196;19.638;2023-12-04T17:14:22;172.10;;;77.80;;
68379;SDS011;57711;53.196;19.638;2023-12-04T17:16:49;142.30;;;64.70;;
68379;SDS011;57711;53.196;19.638;2023-12-04T17:19:17;124.50;;;58.50;;
68379;SDS011;57711;53.196;19.638;2023-12-04T17:21:44;123.00;;;55.90;;
68379;SDS011;57711;53.196;19.638;2023-12-04T17:24:12;544.90;;;242.90;;
68379;SDS011;57711;53.196;19.638;2023-12-04T17:26:39;226.60;;;92.30;;
68379;SDS011;57711;53.196;19.638;2023-12-04T17:29:06;138.10;;;59.90;;
68379;SDS011;57711;53.196;19.638;2023-12-04T17:31:39;115.10;;;51.40;;
68379;SDS011;57711;53.196;19.638;2023-12-04T17:34:09;88.10;;;44.20;;
68379;SDS011;57711;53.196;19.638;2023-12-04T17:36:36;86.80;;;41.20;;
68379;SDS011;57711;53.196;19.638;2023-12-04T17:39:04;78.50;;;40.60;;
68379;SDS011;57711;53.196;19.638;2023-12-04T17:41:34;78.90;;;40.30;;
68379;SDS011;57711;53.196;19.638;2023-12-04T17:44:02;68.70;;;37.60;;
68379;SDS011;57711;53.196;19.638;2023-12-04T17:46:29;85.80;;;43.00;;
68379;SDS011;57711;53.196;19.638;2023-12-04T17:48:56;86.40;;;40.20;;
68379;SDS011;57711;53.196;19.638;2023-12-04T17:51:26;87.30;;;40.70;;
68379;SDS011;57711;53.196;19.638;2023-12-04T17:53:55;405.20;;;151.00;;
68379;SDS011;57711;53.196;19.638;2023-12-04T17:56:23;485.20;;;211.50;;
68379;SDS011;57711;53.196;19.638;2023-12-04T17:58:50;266.00;;;109.40;;
68379;SDS011;57711;53.196;19.638;2023-12-04T18:01:18;201.40;;;90.60;;
68379;SDS011;57711;53.196;19.638;2023-12-04T18:03:45;179.70;;;82.10;;
68379;SDS011;57711;53.196;19.638;2023-12-04T18:06:13;173.10;;;89.60;;
68379;SDS011;57711;53.196;19.638;2023-12-04T18:08:42;193.60;;;83.90;;
68379;SDS011;57711;53.196;19.638;2023-12-04T18:11:09;251.50;;;104.20;;
68379;SDS011;57711;53.196;19.638;2023-12-04T18:13:38;275.10;;;106.30;;
68379;SDS011;57711;53.196;19.638;2023-12-04T18:16:05;300.40;;;113.90;;
68379;SDS011;57711;53.196;19.638;2023-12-04T18:18:32;408.70;;;175.40;;
68379;SDS011;57711;53.196;19.638;2023-12-04T18:21:01;401.40;;;179.70;;
68379;SDS011;57711;53.196;19.638;2023-12-04T18:23:29;441.20;;;207.50;;
68379;SDS011;57711;53.196;19.638;2023-12-04T18:25:58;588.80;;;294.90;;
68379;SDS011;57711;53.196;19.638;2023-12-04T18:28:25;529.50;;;244.30;;
68379;SDS011;57711;53.196;19.638;2023-12-04T18:30:53;545.80;;;241.70;;
68379;SDS011;57711;53.196;19.638;2023-12-04T18:33:21;505.00;;;213.00;;
68379;SDS011;57711;53.196;19.638;2023-12-04T18:35:48;511.00;;;229.90;;
68379;SDS011;57711;53.196;19.638;2023-12-04T18:40:51;575.40;;;292.70;;
68379;SDS011;57711;53.196;19.638;2023-12-04T18:43:19;475.70;;;234.30;;
68379;SDS011;57711;53.196;19.638;2023-12-04T18:45:46;374.00;;;159.80;;
68379;SDS011;57711;53.196;19.638;2023-12-04T18:48:15;358.50;;;155.80;;
68379;SDS011;57711;53.196;19.638;2023-12-04T18:50:46;327.10;;;143.60;;
68379;SDS011;57711;53.196;19.638;2023-12-04T18:53:16;313.50;;;139.60;;
68379;SDS011;57711;53.196;19.638;2023-12-04T18:55:44;359.70;;;161.00;;
68379;SDS011;57711;53.196;19.638;2023-12-04T18:58:11;387.20;;;178.40;;
68379;SDS011;57711;53.196;19.638;2023-12-04T19:00:40;406.80;;;191.90;;
68379;SDS011;57711;53.196;19.638;2023-12-04T19:03:08;383.20;;;179.10;;
68379;SDS011;57711;53.196;19.638;2023-12-04T19:05:36;388.80;;;163.20;;
68379;SDS011;57711;53.196;19.638;2023-12-04T19:08:04;274.00;;;118.70;;
68379;SDS011;57711;53.196;19.638;2023-12-04T19:10:32;185.60;;;77.90;;
68379;SDS011;57711;53.196;19.638;2023-12-04T19:13:00;156.50;;;71.80;;
68379;SDS011;57711;53.196;19.638;2023-12-04T19:15:28;173.50;;;77.70;;
68379;SDS011;57711;53.196;19.638;2023-12-04T19:17:58;201.90;;;84.30;;
68379;SDS011;57711;53.196;19.638;2023-12-04T19:20:26;248.50;;;110.20;;
68379;SDS011;57711;53.196;19.638;2023-12-04T19:22:56;194.30;;;82.70;;
68379;SDS011;57711;53.196;19.638;2023-12-04T19:25:24;165.70;;;72.40;;
68379;SDS011;57711;53.196;19.638;2023-12-04T19:27:59;171.20;;;77.50;;
68379;SDS011;57711;53.196;19.638;2023-12-04T19:30:26;323.20;;;115.80;;
68379;SDS011;57711;53.196;19.638;2023-12-04T19:33:00;380.60;;;136.50;;
68379;SDS011;57711;53.196;19.638;2023-12-04T19:35:31;357.30;;;137.20;;
68379;SDS011;57711;53.196;19.638;2023-12-04T19:37:59;331.70;;;136.00;;
68379;SDS011;57711;53.196;19.638;2023-12-04T19:40:26;315.70;;;131.40;;
68379;SDS011;57711;53.196;19.638;2023-12-04T19:42:55;335.70;;;144.30;;
68379;SDS011;57711;53.196;19.638;2023-12-04T19:45:22;364.40;;;156.90;;
68379;SDS011;57711;53.196;19.638;2023-12-04T19:47:51;507.20;;;224.00;;
68379;SDS011;57711;53.196;19.638;2023-12-04T19:50:18;505.70;;;219.70;;
68379;SDS011;57711;53.196;19.638;2023-12-04T19:52:47;422.30;;;172.60;;
68379;SDS011;57711;53.196;19.638;2023-12-04T19:55:14;391.20;;;167.20;;
68379;SDS011;57711;53.196;19.638;2023-12-04T19:57:41;352.30;;;143.70;;
68379;SDS011;57711;53.196;19.638;2023-12-04T20:00:08;367.10;;;147.30;;
68379;SDS011;57711;53.196;19.638;2023-12-04T20:02:39;391.70;;;157.10;;
68379;SDS011;57711;53.196;19.638;2023-12-04T20:05:06;375.00;;;147.20;;
68379;SDS011;57711;53.196;19.638;2023-12-04T20:07:34;349.60;;;139.00;;
68379;SDS011;57711;53.196;19.638;2023-12-04T20:10:01;363.20;;;135.20;;
68379;SDS011;57711;53.196;19.638;2023-12-04T20:12:28;474.00;;;174.20;;
68379;SDS011;57711;53.196;19.638;2023-12-04T20:14:56;486.10;;;182.50;;
68379;SDS011;57711;53.196;19.638;2023-12-04T20:17:24;448.80;;;172.60;;
68379;SDS011;57711;53.196;19.638;2023-12-04T20:19:52;425.30;;;173.10;;
68379;SDS011;57711;53.196;19.638;2023-12-04T20:22:19;432.90;;;195.10;;
68379;SDS011;57711;53.196;19.638;2023-12-04T20:24:46;297.80;;;133.00;;
68379;SDS011;57711;53.196;19.638;2023-12-04T20:27:14;259.40;;;120.80;;
68379;SDS011;57711;53.196;19.638;2023-12-04T20:29:42;223.90;;;100.80;;
68379;SDS011;57711;53.196;19.638;2023-12-04T20:32:09;191.50;;;90.10;;
68379;SDS011;57711;53.196;19.638;2023-12-04T20:34:36;210.00;;;94.00;;
68379;SDS011;57711;53.196;19.638;2023-12-04T20:37:05;182.00;;;87.00;;
68379;SDS011;57711;53.196;19.638;2023-12-04T20:39:32;237.50;;;113.50;;
68379;SDS011;57711;53.196;19.638;2023-12-04T20:42:03;257.40;;;128.50;;
68379;SDS011;57711;53.196;19.638;2023-12-04T20:44:30;216.00;;;108.40;;
68379;SDS011;57711;53.196;19.638;2023-12-04T20:46:59;208.40;;;91.50;;
68379;SDS011;57711;53.196;19.638;2023-12-04T20:49:27;158.20;;;69.10;;
68379;SDS011;57711;53.196;19.638;2023-12-04T20:51:55;155.60;;;65.40;;
68379;SDS011;57711;53.196;19.638;2023-12-04T20:54:23;141.60;;;57.50;;
68379;SDS011;57711;53.196;19.638;2023-12-04T20:56:50;149.20;;;71.20;;
68379;SDS011;57711;53.196;19.638;2023-12-04T20:59:17;131.80;;;66.50;;
68379;SDS011;57711;53.196;19.638;2023-12-04T21:01:47;114.30;;;51.40;;
68379;SDS011;57711;53.196;19.638;2023-12-04T21:04:16;121.70;;;50.40;;
68379;SDS011;57711;53.196;19.638;2023-12-04T21:06:45;125.40;;;51.20;;
68379;SDS011;57711;53.196;19.638;2023-12-04T21:09:12;157.10;;;64.80;;
68379;SDS011;57711;53.196;19.638;2023-12-04T21:11:39;140.90;;;61.40;;
68379;SDS011;57711;53.196;19.638;2023-12-04T21:14:07;143.50;;;61.00;;
68379;SDS011;57711;53.196;19.638;2023-12-04T21:16:35;287.00;;;135.70;;
68379;SDS011;57711;53.196;19.638;2023-12-04T21:19:17;441.20;;;199.30;;
68379;SDS011;57711;53.196;19.638;2023-12-04T21:21:45;344.20;;;124.30;;
68379;SDS011;57711;53.196;19.638;2023-12-04T21:24:12;220.10;;;78.60;;
68379;SDS011;57711;53.196;19.638;2023-12-04T21:26:40;205.40;;;73.70;;
68379;SDS011;57711;53.196;19.638;2023-12-04T21:29:07;204.50;;;76.10;;
68379;SDS011;57711;53.196;19.638;2023-12-04T21:31:40;312.20;;;90.30;;
68379;SDS011;57711;53.196;19.638;2023-12-04T21:34:07;274.80;;;81.90;;
68379;SDS011;57711;53.196;19.638;2023-12-04T21:36:35;341.80;;;95.00;;
68379;SDS011;57711;53.196;19.638;2023-12-04T21:39:02;335.50;;;93.50;;